sensor_id;sensor_type;location;lat;lon;timestamp;pressure;altitude;pressure_sealevel;temperature;humidity
6778;BME280;3426;52.244;10.534;2022-09-01T00:01:41;101450.44;;;18.89;50.13
6778;BME280;3426;52.244;10.534;2022-09-01T00:04:11;101443.94;;;18.57;50.94
6778;BME280;3426;52.244;10.534;2022-09-01T00:06:38;101442.91;;;18.70;50.76
6778;BME280;3426;52.244;10.534;2022-09-01T00:09:10;101444.09;;;18.42;51.12
6778;BME280;3426;52.244;10.534;2022-09-01T00:11:37;101453.31;;;18.51;51.13
6778;BME280;3426;52.244;10.534;2022-09-01T00:14:06;101446.22;;;18.50;51.10
6778;BME280;3426;52.244;10.534;2022-09-01T00:16:53;101445.88;;;18.78;50.41
6778;BME280;3426;52.244;10.534;2022-09-01T00:19:22;101450.97;;;18.70;50.43
6778;BME280;3426;52.244;10.534;2022-09-01T00:21:49;101446.56;;;18.69;50.69
6778;BME280;3426;52.244;10.534;2022-09-01T00:24:17;101450.16;;;18.57;50.95
6778;BME280;3426;52.244;10.534;2022-09-01T00:26:45;101451.81;;;18.71;50.47
6778;BME280;3426;52.244;10.534;2022-09-01T00:29:11;101454.41;;;18.60;50.58
6778;BME280;3426;52.244;10.534;2022-09-01T00:31:38;101452.19;;;18.53;50.65
6778;BME280;3426;52.244;10.534;2022-09-01T00:34:05;101453.06;;;18.30;51.39
6778;BME280;3426;52.244;10.534;2022-09-01T00:36:32;101449.56;;;17.67;53.53
6778;BME280;3426;52.244;10.534;2022-09-01T00:38:59;101456.44;;;17.20;55.31
6778;BME280;3426;52.244;10.534;2022-09-01T00:41:27;101451.09;;;17.20;55.29
6778;BME280;3426;52.244;10.534;2022-09-01T00:43:58;101455.38;;;17.10;56.11
6778;BME280;3426;52.244;10.534;2022-09-01T00:46:32;101454.41;;;17.11;55.78
6778;BME280;3426;52.244;10.534;2022-09-01T00:49:10;101466.25;;;16.94;56.84
6778;BME280;3426;52.244;10.534;2022-09-01T00:51:40;101452.16;;;17.05;57.09
6778;BME280;3426;52.244;10.534;2022-09-01T00:54:12;101453.84;;;17.06;56.87
6778;BME280;3426;52.244;10.534;2022-09-01T00:56:40;101454.94;;;17.04;57.39
6778;BME280;3426;52.244;10.534;2022-09-01T00:59:12;101456.81;;;16.76;57.92
6778;BME280;3426;52.244;10.534;2022-09-01T01:01:40;101463.22;;;16.74;57.88
6778;BME280;3426;52.244;10.534;2022-09-01T01:04:07;101456.34;;;17.22;56.62
6778;BME280;3426;52.244;10.534;2022-09-01T01:06:42;101447.03;;;17.02;57.51
6778;BME280;3426;52.244;10.534;2022-09-01T01:09:19;101450.34;;;16.12;60.70
6778;BME280;3426;52.244;10.534;2022-09-01T01:11:47;101446.34;;;16.99;58.52
6778;BME280;3426;52.244;10.534;2022-09-01T01:14:16;101447.47;;;16.69;58.61
6778;BME280;3426;52.244;10.534;2022-09-01T01:16:48;101445.09;;;17.55;56.83
6778;BME280;3426;52.244;10.534;2022-09-01T01:22:07;101440.25;;;16.30;60.23
6778;BME280;3426;52.244;10.534;2022-09-01T01:24:53;101442.88;;;16.44;60.04
6778;BME280;3426;52.244;10.534;2022-09-01T01:27:21;101441.31;;;16.27;60.32
6778;BME280;3426;52.244;10.534;2022-09-01T01:29:47;101433.94;;;17.61;56.92
6778;BME280;3426;52.244;10.534;2022-09-01T01:32:15;101428.44;;;17.88;55.16
6778;BME280;3426;52.244;10.534;2022-09-01T01:34:41;101442.84;;;17.49;56.64
6778;BME280;3426;52.244;10.534;2022-09-01T01:37:08;101439.94;;;17.52;56.72
6778;BME280;3426;52.244;10.534;2022-09-01T01:39:36;101440.59;;;17.43;56.80
6778;BME280;3426;52.244;10.534;2022-09-01T01:42:08;101441.19;;;17.85;55.94
6778;BME280;3426;52.244;10.534;2022-09-01T01:44:36;101441.81;;;18.01;55.15
6778;BME280;3426;52.244;10.534;2022-09-01T01:47:06;101446.78;;;17.82;55.38
6778;BME280;3426;52.244;10.534;2022-09-01T01:49:39;101441.97;;;17.61;55.91
6778;BME280;3426;52.244;10.534;2022-09-01T01:52:12;101449.78;;;17.64;56.52
6778;BME280;3426;52.244;10.534;2022-09-01T01:54:42;101443.50;;;18.02;54.93
6778;BME280;3426;52.244;10.534;2022-09-01T01:57:11;101450.19;;;18.20;54.42
6778;BME280;3426;52.244;10.534;2022-09-01T01:59:43;101451.94;;;17.34;56.61
6778;BME280;3426;52.244;10.534;2022-09-01T02:02:10;101450.19;;;16.82;58.78
6778;BME280;3426;52.244;10.534;2022-09-01T02:04:38;101454.50;;;16.97;58.22
6778;BME280;3426;52.244;10.534;2022-09-01T02:07:11;101459.56;;;17.14;57.79
6778;BME280;3426;52.244;10.534;2022-09-01T02:09:38;101454.63;;;16.68;59.67
6778;BME280;3426;52.244;10.534;2022-09-01T02:12:07;101459.72;;;16.32;60.26
6778;BME280;3426;52.244;10.534;2022-09-01T02:14:34;101457.44;;;16.26;61.29
6778;BME280;3426;52.244;10.534;2022-09-01T02:17:00;101464.72;;;16.24;60.82
6778;BME280;3426;52.244;10.534;2022-09-01T02:19:29;101462.06;;;16.24;60.86
6778;BME280;3426;52.244;10.534;2022-09-01T02:21:55;101464.69;;;15.97;61.90
6778;BME280;3426;52.244;10.534;2022-09-01T02:24:24;101453.94;;;16.52;60.20
6778;BME280;3426;52.244;10.534;2022-09-01T02:26:51;101459.97;;;16.41;60.57
6778;BME280;3426;52.244;10.534;2022-09-01T02:29:20;101460.59;;;15.91;62.16
6778;BME280;3426;52.244;10.534;2022-09-01T02:31:50;101465.84;;;17.01;59.21
6778;BME280;3426;52.244;10.534;2022-09-01T02:34:18;101457.63;;;17.55;57.30
6778;BME280;3426;52.244;10.534;2022-09-01T02:36:49;101461.44;;;16.33;60.54
6778;BME280;3426;52.244;10.534;2022-09-01T02:39:18;101462.25;;;16.48;60.72
6778;BME280;3426;52.244;10.534;2022-09-01T02:41:45;101455.28;;;16.72;59.85
6778;BME280;3426;52.244;10.534;2022-09-01T02:44:12;101452.16;;;16.11;61.64
6778;BME280;3426;52.244;10.534;2022-09-01T02:46:41;101450.38;;;15.55;63.56
6778;BME280;3426;52.244;10.534;2022-09-01T02:49:12;101445.97;;;15.82;62.99
6778;BME280;3426;52.244;10.534;2022-09-01T02:51:45;101447.22;;;16.05;62.03
6778;BME280;3426;52.244;10.534;2022-09-01T02:54:13;101441.06;;;16.17;61.98
6778;BME280;3426;52.244;10.534;2022-09-01T02:56:44;101441.50;;;15.97;63.15
6778;BME280;3426;52.244;10.534;2022-09-01T02:59:21;101449.03;;;15.76;63.46
6778;BME280;3426;52.244;10.534;2022-09-01T03:01:50;101431.25;;;16.04;62.80
6778;BME280;3426;52.244;10.534;2022-09-01T03:04:17;101429.78;;;15.71;63.33
6778;BME280;3426;52.244;10.534;2022-09-01T03:06:45;101433.63;;;16.08;62.75
6778;BME280;3426;52.244;10.534;2022-09-01T03:09:15;101435.69;;;15.62;63.92
6778;BME280;3426;52.244;10.534;2022-09-01T03:11:45;101437.91;;;15.70;64.23
6778;BME280;3426;52.244;10.534;2022-09-01T03:14:12;101435.72;;;16.72;60.47
6778;BME280;3426;52.244;10.534;2022-09-01T03:16:39;101437.50;;;15.76;63.29
6778;BME280;3426;52.244;10.534;2022-09-01T03:19:07;101438.41;;;16.17;62.38
6778;BME280;3426;52.244;10.534;2022-09-01T03:21:36;101435.97;;;16.00;62.86
6778;BME280;3426;52.244;10.534;2022-09-01T03:24:12;101438.09;;;15.38;65.22
6778;BME280;3426;52.244;10.534;2022-09-01T03:26:41;101434.34;;;15.41;65.25
6778;BME280;3426;52.244;10.534;2022-09-01T03:29:08;101440.56;;;15.27;65.74
6778;BME280;3426;52.244;10.534;2022-09-01T03:31:35;101444.72;;;15.17;65.75
6778;BME280;3426;52.244;10.534;2022-09-01T03:34:03;101448.00;;;15.64;64.86
6778;BME280;3426;52.244;10.534;2022-09-01T03:36:31;101453.75;;;15.14;66.23
6778;BME280;3426;52.244;10.534;2022-09-01T03:38:59;101449.03;;;15.62;64.91
6778;BME280;3426;52.244;10.534;2022-09-01T03:41:28;101446.34;;;15.48;65.11
6778;BME280;3426;52.244;10.534;2022-09-01T03:43:55;101453.22;;;15.09;66.70
6778;BME280;3426;52.244;10.534;2022-09-01T03:46:24;101440.94;;;15.35;65.71
6778;BME280;3426;52.244;10.534;2022-09-01T03:48:56;101443.13;;;15.71;64.28
6778;BME280;3426;52.244;10.534;2022-09-01T03:51:30;101443.22;;;15.41;65.78
6778;BME280;3426;52.244;10.534;2022-09-01T03:53:57;101443.97;;;15.29;65.63
6778;BME280;3426;52.244;10.534;2022-09-01T03:56:26;101439.81;;;15.39;65.40
6778;BME280;3426;52.244;10.534;2022-09-01T03:58:55;101442.66;;;15.64;64.37
6778;BME280;3426;52.244;10.534;2022-09-01T04:01:24;101446.34;;;15.05;66.75
6778;BME280;3426;52.244;10.534;2022-09-01T04:03:51;101444.75;;;15.45;65.43
6778;BME280;3426;52.244;10.534;2022-09-01T04:06:19;101434.25;;;16.80;60.89
6778;BME280;3426;52.244;10.534;2022-09-01T04:08:50;101437.47;;;16.04;62.57
6778;BME280;3426;52.244;10.534;2022-09-01T04:11:20;101430.94;;;16.23;61.73
6778;BME280;3426;52.244;10.534;2022-09-01T04:13:49;101438.94;;;15.96;63.23
6778;BME280;3426;52.244;10.534;2022-09-01T04:16:19;101447.53;;;15.72;64.69
6778;BME280;3426;52.244;10.534;2022-09-01T04:19:05;101445.44;;;15.49;64.92
6778;BME280;3426;52.244;10.534;2022-09-01T04:21:42;101445.84;;;14.98;67.06
6778;BME280;3426;52.244;10.534;2022-09-01T04:24:10;101438.38;;;15.76;64.37
6778;BME280;3426;52.244;10.534;2022-09-01T04:26:40;101434.25;;;15.56;64.95
6778;BME280;3426;52.244;10.534;2022-09-01T04:29:07;101437.47;;;15.19;66.08
6778;BME280;3426;52.244;10.534;2022-09-01T04:31:36;101440.19;;;15.33;66.05
6778;BME280;3426;52.244;10.534;2022-09-01T04:34:07;101436.47;;;15.64;64.96
6778;BME280;3426;52.244;10.534;2022-09-01T04:36:41;101436.41;;;16.07;63.65
6778;BME280;3426;52.244;10.534;2022-09-01T04:39:09;101428.75;;;15.74;64.24
6778;BME280;3426;52.244;10.534;2022-09-01T04:41:41;101428.25;;;15.38;65.42
6778;BME280;3426;52.244;10.534;2022-09-01T04:44:08;101437.47;;;16.04;63.64
6778;BME280;3426;52.244;10.534;2022-09-01T04:46:40;101433.53;;;15.83;63.51
6778;BME280;3426;52.244;10.534;2022-09-01T04:49:08;101437.03;;;15.69;64.86
6778;BME280;3426;52.244;10.534;2022-09-01T04:51:43;101437.06;;;16.10;63.80
6778;BME280;3426;52.244;10.534;2022-09-01T04:54:10;101437.31;;;15.64;64.91
6778;BME280;3426;52.244;10.534;2022-09-01T04:56:44;101432.72;;;15.52;65.55
6778;BME280;3426;52.244;10.534;2022-09-01T04:59:12;101430.75;;;16.38;63.14
6778;BME280;3426;52.244;10.534;2022-09-01T05:01:40;101445.75;;;16.41;62.26
6778;BME280;3426;52.244;10.534;2022-09-01T05:04:19;101444.59;;;16.72;61.28
6778;BME280;3426;52.244;10.534;2022-09-01T05:06:50;101445.94;;;16.11;62.94
6778;BME280;3426;52.244;10.534;2022-09-01T05:09:19;101452.66;;;15.47;64.94
6778;BME280;3426;52.244;10.534;2022-09-01T05:11:46;101463.72;;;15.26;66.12
6778;BME280;3426;52.244;10.534;2022-09-01T05:14:14;101466.50;;;14.95;67.14
6778;BME280;3426;52.244;10.534;2022-09-01T05:16:44;101467.09;;;15.14;66.82
6778;BME280;3426;52.244;10.534;2022-09-01T05:19:13;101466.00;;;15.32;65.84
6778;BME280;3426;52.244;10.534;2022-09-01T05:21:45;101460.84;;;15.58;64.95
6778;BME280;3426;52.244;10.534;2022-09-01T05:24:19;101463.97;;;15.07;67.20
6778;BME280;3426;52.244;10.534;2022-09-01T05:26:47;101462.69;;;15.57;66.00
6778;BME280;3426;52.244;10.534;2022-09-01T05:29:16;101463.50;;;16.42;62.88
6778;BME280;3426;52.244;10.534;2022-09-01T05:31:45;101462.38;;;15.48;65.50
6778;BME280;3426;52.244;10.534;2022-09-01T05:34:15;101459.47;;;15.67;65.43
6778;BME280;3426;52.244;10.534;2022-09-01T05:36:45;101456.59;;;15.70;65.23
6778;BME280;3426;52.244;10.534;2022-09-01T05:39:15;101464.13;;;15.49;65.61
6778;BME280;3426;52.244;10.534;2022-09-01T05:41:42;101464.94;;;16.75;62.24
6778;BME280;3426;52.244;10.534;2022-09-01T05:44:09;101460.19;;;16.11;62.82
6778;BME280;3426;52.244;10.534;2022-09-01T05:46:38;101459.03;;;16.01;64.25
6778;BME280;3426;52.244;10.534;2022-09-01T05:49:06;101458.72;;;16.47;62.89
6778;BME280;3426;52.244;10.534;2022-09-01T05:51:34;101449.84;;;16.47;63.37
6778;BME280;3426;52.244;10.534;2022-09-01T05:54:17;101450.94;;;16.03;64.59
6778;BME280;3426;52.244;10.534;2022-09-01T05:56:47;101457.84;;;15.78;64.88
6778;BME280;3426;52.244;10.534;2022-09-01T05:59:14;101455.59;;;16.40;64.15
6778;BME280;3426;52.244;10.534;2022-09-01T06:01:50;101463.75;;;16.25;64.46
6778;BME280;3426;52.244;10.534;2022-09-01T06:04:18;101463.59;;;16.13;65.01
6778;BME280;3426;52.244;10.534;2022-09-01T06:06:47;101466.06;;;16.16;64.34
6778;BME280;3426;52.244;10.534;2022-09-01T06:09:36;101471.63;;;16.40;63.84
6778;BME280;3426;52.244;10.534;2022-09-01T06:12:04;101463.16;;;16.34;63.56
6778;BME280;3426;52.244;10.534;2022-09-01T06:14:32;101463.78;;;16.10;64.72
6778;BME280;3426;52.244;10.534;2022-09-01T06:16:58;101468.72;;;16.98;62.51
6778;BME280;3426;52.244;10.534;2022-09-01T06:19:26;101472.75;;;16.78;62.96
6778;BME280;3426;52.244;10.534;2022-09-01T06:21:52;101467.94;;;16.83;62.45
6778;BME280;3426;52.244;10.534;2022-09-01T06:24:19;101470.56;;;16.43;63.43
6778;BME280;3426;52.244;10.534;2022-09-01T06:26:45;101468.03;;;16.27;64.26
6778;BME280;3426;52.244;10.534;2022-09-01T06:29:12;101477.88;;;16.27;64.16
6778;BME280;3426;52.244;10.534;2022-09-01T06:34:23;101477.41;;;16.34;63.35
6778;BME280;3426;52.244;10.534;2022-09-01T06:36:51;101472.81;;;17.03;62.84
6778;BME280;3426;52.244;10.534;2022-09-01T06:39:19;101481.38;;;16.68;62.78
6778;BME280;3426;52.244;10.534;2022-09-01T06:41:49;101477.84;;;17.08;62.13
6778;BME280;3426;52.244;10.534;2022-09-01T06:44:18;101483.28;;;16.12;64.93
6778;BME280;3426;52.244;10.534;2022-09-01T06:46:49;101484.00;;;16.14;64.97
6778;BME280;3426;52.244;10.534;2022-09-01T06:49:18;101474.53;;;17.30;61.65
6778;BME280;3426;52.244;10.534;2022-09-01T06:51:46;101481.13;;;16.59;63.65
6778;BME280;3426;52.244;10.534;2022-09-01T06:54:17;101479.28;;;16.74;62.72
6778;BME280;3426;52.244;10.534;2022-09-01T06:56:46;101488.69;;;16.52;63.83
6778;BME280;3426;52.244;10.534;2022-09-01T06:59:19;101486.44;;;16.46;63.45
6778;BME280;3426;52.244;10.534;2022-09-01T07:01:47;101488.28;;;16.31;64.73
6778;BME280;3426;52.244;10.534;2022-09-01T07:04:15;101492.09;;;16.27;64.94
6778;BME280;3426;52.244;10.534;2022-09-01T07:06:45;101489.13;;;17.38;61.06
6778;BME280;3426;52.244;10.534;2022-09-01T07:09:36;101493.31;;;16.36;64.37
6778;BME280;3426;52.244;10.534;2022-09-01T07:12:15;101492.75;;;16.31;64.61
6778;BME280;3426;52.244;10.534;2022-09-01T07:14:54;101490.94;;;15.90;65.49
6778;BME280;3426;52.244;10.534;2022-09-01T07:17:53;101485.88;;;16.27;64.18
6778;BME280;3426;52.244;10.534;2022-09-01T07:20:26;101489.31;;;17.22;61.54
6778;BME280;3426;52.244;10.534;2022-09-01T07:22:55;101487.25;;;18.15;58.26
6778;BME280;3426;52.244;10.534;2022-09-01T07:25:32;101486.19;;;17.03;60.34
6778;BME280;3426;52.244;10.534;2022-09-01T07:28:21;101491.47;;;19.02;56.07
6778;BME280;3426;52.244;10.534;2022-09-01T07:31:02;101489.59;;;18.44;56.14
6778;BME280;3426;52.244;10.534;2022-09-01T07:33:52;101493.09;;;18.57;55.74
6778;BME280;3426;52.244;10.534;2022-09-01T07:36:40;101484.91;;;18.59;55.49
6778;BME280;3426;52.244;10.534;2022-09-01T07:39:30;101484.19;;;18.80;55.10
6778;BME280;3426;52.244;10.534;2022-09-01T07:42:16;101476.97;;;20.51;51.89
6778;BME280;3426;52.244;10.534;2022-09-01T07:45:07;101477.09;;;20.81;48.95
6778;BME280;3426;52.244;10.534;2022-09-01T07:47:54;101477.66;;;20.21;49.77
6778;BME280;3426;52.244;10.534;2022-09-01T07:50:21;101484.53;;;20.57;48.54
6778;BME280;3426;52.244;10.534;2022-09-01T07:53:09;101463.63;;;21.44;45.64
6778;BME280;3426;52.244;10.534;2022-09-01T07:55:40;101468.59;;;21.18;44.57
6778;BME280;3426;52.244;10.534;2022-09-01T07:58:10;101470.41;;;22.49;42.79
6778;BME280;3426;52.244;10.534;2022-09-01T08:00:38;101462.44;;;23.72;37.99
6778;BME280;3426;52.244;10.534;2022-09-01T08:03:05;101465.59;;;23.68;37.28
6778;BME280;3426;52.244;10.534;2022-09-01T08:05:32;101470.34;;;22.11;38.36
6778;BME280;3426;52.244;10.534;2022-09-01T08:07:58;101469.22;;;23.86;34.97
6778;BME280;3426;52.244;10.534;2022-09-01T08:10:26;101463.78;;;24.77;34.97
6778;BME280;3426;52.244;10.534;2022-09-01T08:12:53;101470.72;;;23.05;35.48
6778;BME280;3426;52.244;10.534;2022-09-01T08:15:24;101467.44;;;22.82;35.95
6778;BME280;3426;52.244;10.534;2022-09-01T08:18:11;101472.03;;;23.94;35.37
6778;BME280;3426;52.244;10.534;2022-09-01T08:20:41;101470.22;;;24.13;33.21
6778;BME280;3426;52.244;10.534;2022-09-01T08:23:13;101480.41;;;23.54;34.19
6778;BME280;3426;52.244;10.534;2022-09-01T08:25:41;101468.53;;;23.37;35.49
6778;BME280;3426;52.244;10.534;2022-09-01T08:28:10;101473.66;;;22.24;38.12
6778;BME280;3426;52.244;10.534;2022-09-01T08:30:40;101469.22;;;23.86;34.92
6778;BME280;3426;52.244;10.534;2022-09-01T08:33:17;101461.94;;;23.49;34.87
6778;BME280;3426;52.244;10.534;2022-09-01T08:35:46;101465.50;;;23.87;35.04
6778;BME280;3426;52.244;10.534;2022-09-01T08:38:13;101469.72;;;23.52;35.87
6778;BME280;3426;52.244;10.534;2022-09-01T08:40:40;101472.59;;;23.51;36.07
6778;BME280;3426;52.244;10.534;2022-09-01T08:43:33;101461.31;;;23.65;34.64
6778;BME280;3426;52.244;10.534;2022-09-01T08:46:34;101468.00;;;22.66;35.59
6778;BME280;3426;52.244;10.534;2022-09-01T08:49:09;101468.38;;;21.82;37.87
6778;BME280;3426;52.244;10.534;2022-09-01T08:52:23;101460.47;;;23.65;35.57
6778;BME280;3426;52.244;10.534;2022-09-01T08:54:58;101470.00;;;23.02;35.83
6778;BME280;3426;52.244;10.534;2022-09-01T08:59:57;101466.53;;;22.13;39.83
6778;BME280;3426;52.244;10.534;2022-09-01T09:10:37;101471.25;;;23.74;36.84
6778;BME280;3426;52.244;10.534;2022-09-01T09:18:19;101466.38;;;23.31;36.21
6778;BME280;3426;52.244;10.534;2022-09-01T09:21:42;101473.06;;;22.20;38.09
6778;BME280;3426;52.244;10.534;2022-09-01T09:24:13;101463.72;;;22.25;37.87
6778;BME280;3426;52.244;10.534;2022-09-01T09:26:55;101469.25;;;21.92;38.50
6778;BME280;3426;52.244;10.534;2022-09-01T09:29:21;101463.72;;;22.44;37.48
6778;BME280;3426;52.244;10.534;2022-09-01T09:32:01;101448.75;;;23.74;35.65
6778;BME280;3426;52.244;10.534;2022-09-01T09:37:16;101445.38;;;23.72;35.64
6778;BME280;3426;52.244;10.534;2022-09-01T09:39:45;101447.81;;;23.93;35.03
6778;BME280;3426;52.244;10.534;2022-09-01T09:42:27;101441.34;;;24.03;34.36
6778;BME280;3426;52.244;10.534;2022-09-01T09:45:00;101441.09;;;23.69;34.51
6778;BME280;3426;52.244;10.534;2022-09-01T09:50:11;101442.13;;;23.02;34.73
6778;BME280;3426;52.244;10.534;2022-09-01T09:52:39;101438.84;;;23.92;32.29
6778;BME280;3426;52.244;10.534;2022-09-01T09:55:19;101450.56;;;23.36;33.68
6778;BME280;3426;52.244;10.534;2022-09-01T09:57:48;101445.81;;;24.76;31.41
6778;BME280;3426;52.244;10.534;2022-09-01T10:00:38;101447.81;;;22.51;34.38
6778;BME280;3426;52.244;10.534;2022-09-01T10:03:08;101445.66;;;23.69;32.94
6778;BME280;3426;52.244;10.534;2022-09-01T10:05:44;101452.22;;;23.10;33.58
6778;BME280;3426;52.244;10.534;2022-09-01T10:10:56;101433.34;;;23.84;33.08
6778;BME280;3426;52.244;10.534;2022-09-01T10:13:25;101429.47;;;24.32;32.11
6778;BME280;3426;52.244;10.534;2022-09-01T10:15:55;101427.91;;;24.12;31.86
6778;BME280;3426;52.244;10.534;2022-09-01T10:18:26;101421.19;;;25.65;30.65
6778;BME280;3426;52.244;10.534;2022-09-01T10:21:17;101419.16;;;24.89;31.42
6778;BME280;3426;52.244;10.534;2022-09-01T10:23:47;101423.97;;;24.06;33.12
6778;BME280;3426;52.244;10.534;2022-09-01T10:31:30;101426.91;;;22.91;34.09
6778;BME280;3426;52.244;10.534;2022-09-01T10:34:01;101414.91;;;24.33;32.94
6778;BME280;3426;52.244;10.534;2022-09-01T10:36:32;101415.22;;;23.94;34.10
6778;BME280;3426;52.244;10.534;2022-09-01T10:39:00;101411.47;;;23.77;33.21
6778;BME280;3426;52.244;10.534;2022-09-01T10:41:55;101405.94;;;23.97;32.53
6778;BME280;3426;52.244;10.534;2022-09-01T10:47:26;101410.50;;;23.96;32.65
6778;BME280;3426;52.244;10.534;2022-09-01T10:49:59;101412.19;;;23.97;32.70
6778;BME280;3426;52.244;10.534;2022-09-01T10:52:53;101409.59;;;23.78;32.69
6778;BME280;3426;52.244;10.534;2022-09-01T10:55:41;101401.69;;;23.67;32.74
6778;BME280;3426;52.244;10.534;2022-09-01T11:01:15;101417.09;;;23.10;33.32
6778;BME280;3426;52.244;10.534;2022-09-01T11:04:02;101397.50;;;24.89;30.97
6778;BME280;3426;52.244;10.534;2022-09-01T11:06:51;101388.94;;;25.20;30.97
6778;BME280;3426;52.244;10.534;2022-09-01T11:09:41;101403.47;;;23.76;32.42
6778;BME280;3426;52.244;10.534;2022-09-01T11:15:51;101385.91;;;23.52;32.62
6778;BME280;3426;52.244;10.534;2022-09-01T11:17:55;101377.41;;;24.74;31.41
6778;BME280;3426;52.244;10.534;2022-09-01T11:20:32;101384.44;;;23.95;32.33
6778;BME280;3426;52.244;10.534;2022-09-01T11:26:43;101387.13;;;23.31;33.49
6778;BME280;3426;52.244;10.534;2022-09-01T11:28:46;101378.13;;;24.58;31.28
6778;BME280;3426;52.244;10.534;2022-09-01T11:31:39;101382.69;;;23.76;32.35
6778;BME280;3426;52.244;10.534;2022-09-01T11:34:18;101382.81;;;24.02;32.05
6778;BME280;3426;52.244;10.534;2022-09-01T11:36:55;101362.47;;;25.14;30.46
6778;BME280;3426;52.244;10.534;2022-09-01T11:39:31;101372.03;;;24.82;31.24
6778;BME280;3426;52.244;10.534;2022-09-01T11:45:03;101379.13;;;23.48;31.75
6778;BME280;3426;52.244;10.534;2022-09-01T11:47:39;101376.03;;;24.96;30.57
6778;BME280;3426;52.244;10.534;2022-09-01T11:50:18;101379.28;;;24.20;32.29
6778;BME280;3426;52.244;10.534;2022-09-01T11:53:07;101375.25;;;24.59;30.51
6778;BME280;3426;52.244;10.534;2022-09-01T11:55:41;101374.03;;;24.36;31.92
6778;BME280;3426;52.244;10.534;2022-09-01T11:58:34;101375.50;;;25.18;30.91
6778;BME280;3426;52.244;10.534;2022-09-01T12:03:46;101372.84;;;24.03;31.65
6778;BME280;3426;52.244;10.534;2022-09-01T12:06:21;101378.59;;;24.53;30.78
6778;BME280;3426;52.244;10.534;2022-09-01T12:09:06;101372.00;;;24.74;29.51
6778;BME280;3426;52.244;10.534;2022-09-01T12:11:34;101371.25;;;25.42;28.79
6778;BME280;3426;52.244;10.534;2022-09-01T12:14:06;101361.31;;;25.58;28.99
6778;BME280;3426;52.244;10.534;2022-09-01T12:16:38;101364.81;;;24.11;31.31
6778;BME280;3426;52.244;10.534;2022-09-01T12:19:07;101358.41;;;24.92;29.96
6778;BME280;3426;52.244;10.534;2022-09-01T12:21:36;101360.53;;;24.80;30.41
6778;BME280;3426;52.244;10.534;2022-09-01T12:24:21;101360.78;;;23.42;31.36
6778;BME280;3426;52.244;10.534;2022-09-01T12:26:50;101359.56;;;24.63;30.40
6778;BME280;3426;52.244;10.534;2022-09-01T12:29:20;101357.38;;;24.93;29.34
6778;BME280;3426;52.244;10.534;2022-09-01T12:31:48;101353.66;;;25.96;27.47
6778;BME280;3426;52.244;10.534;2022-09-01T12:39:40;101347.53;;;24.66;29.13
6778;BME280;3426;52.244;10.534;2022-09-01T12:44:55;101340.44;;;24.91;28.27
6778;BME280;3426;52.244;10.534;2022-09-01T12:52:45;101345.88;;;25.17;28.85
6778;BME280;3426;52.244;10.534;2022-09-01T12:55:18;101344.91;;;23.57;30.47
6778;BME280;3426;52.244;10.534;2022-09-01T12:58:07;101340.34;;;25.34;28.51
6778;BME280;3426;52.244;10.534;2022-09-01T13:00:52;101328.66;;;24.74;28.34
6778;BME280;3426;52.244;10.534;2022-09-01T13:03:19;101320.97;;;24.95;27.77
6778;BME280;3426;52.244;10.534;2022-09-01T13:05:52;101321.72;;;25.74;26.47
6778;BME280;3426;52.244;10.534;2022-09-01T13:08:21;101324.81;;;26.03;26.93
6778;BME280;3426;52.244;10.534;2022-09-01T13:13:28;101315.38;;;25.15;27.87
6778;BME280;3426;52.244;10.534;2022-09-01T13:15:57;101318.50;;;24.76;27.35
6778;BME280;3426;52.244;10.534;2022-09-01T13:18:30;101318.47;;;24.68;27.18
6778;BME280;3426;52.244;10.534;2022-09-01T13:20:56;101315.16;;;24.82;27.51
6778;BME280;3426;52.244;10.534;2022-09-01T13:23:23;101319.47;;;24.31;29.31
6778;BME280;3426;52.244;10.534;2022-09-01T13:25:50;101309.50;;;25.01;28.37
6778;BME280;3426;52.244;10.534;2022-09-01T13:28:17;101304.22;;;24.92;28.57
6778;BME280;3426;52.244;10.534;2022-09-01T13:30:47;101306.75;;;24.41;29.11
6778;BME280;3426;52.244;10.534;2022-09-01T13:33:38;101297.06;;;25.17;27.89
6778;BME280;3426;52.244;10.534;2022-09-01T13:36:24;101294.94;;;25.02;27.85
6778;BME280;3426;52.244;10.534;2022-09-01T13:39:11;101295.91;;;24.23;27.70
6778;BME280;3426;52.244;10.534;2022-09-01T13:41:37;101295.06;;;24.41;27.75
6778;BME280;3426;52.244;10.534;2022-09-01T13:44:04;101302.88;;;24.70;26.86
6778;BME280;3426;52.244;10.534;2022-09-01T13:46:31;101303.53;;;24.64;27.43
6778;BME280;3426;52.244;10.534;2022-09-01T13:48:57;101303.47;;;23.66;28.38
6778;BME280;3426;52.244;10.534;2022-09-01T13:51:28;101300.38;;;24.50;27.97
6778;BME280;3426;52.244;10.534;2022-09-01T13:53:55;101291.88;;;24.97;26.75
6778;BME280;3426;52.244;10.534;2022-09-01T13:56:21;101285.28;;;25.00;26.12
6778;BME280;3426;52.244;10.534;2022-09-01T13:58:48;101284.97;;;25.45;25.63
6778;BME280;3426;52.244;10.534;2022-09-01T14:01:14;101276.47;;;24.72;27.13
6778;BME280;3426;52.244;10.534;2022-09-01T14:03:41;101289.03;;;24.29;27.53
6778;BME280;3426;52.244;10.534;2022-09-01T14:06:09;101283.81;;;25.05;27.01
6778;BME280;3426;52.244;10.534;2022-09-01T14:08:35;101274.19;;;24.85;26.91
6778;BME280;3426;52.244;10.534;2022-09-01T14:11:02;101270.53;;;26.28;25.88
6778;BME280;3426;52.244;10.534;2022-09-01T14:13:29;101273.69;;;25.66;26.34
6778;BME280;3426;52.244;10.534;2022-09-01T14:15:57;101276.88;;;25.61;26.58
6778;BME280;3426;52.244;10.534;2022-09-01T14:18:25;101271.16;;;24.36;28.13
6778;BME280;3426;52.244;10.534;2022-09-01T14:21:02;101267.91;;;24.15;28.30
6778;BME280;3426;52.244;10.534;2022-09-01T14:23:28;101265.50;;;24.47;27.74
6778;BME280;3426;52.244;10.534;2022-09-01T14:25:55;101268.72;;;24.07;28.71
6778;BME280;3426;52.244;10.534;2022-09-01T14:28:22;101260.97;;;24.56;27.62
6778;BME280;3426;52.244;10.534;2022-09-01T14:30:49;101269.59;;;25.11;27.24
6778;BME280;3426;52.244;10.534;2022-09-01T14:33:18;101263.47;;;24.05;28.34
6778;BME280;3426;52.244;10.534;2022-09-01T14:35:49;101264.56;;;24.56;28.06